Aérodrome :
LOGIN :

S'inscrire | Disclaimer

   EN    FR    IT 

 










Légende :    VFR   VFR Marginal   IFR   IFR Intensif   IFR Très Intensif
Visi : 
Plafond : 
>= 8 km
>= 3000ft
5 à 8 km
1000 à 3000 ft
1500m à 5 km
500 à 1000 ft
800 à 1500m
200 à 500 ft
< 800m
< 200 ft
Symboles :   Orages  Brouillard  Fortes neiges  Fortes précipitations  Vent > 20 kt
SIGMETs :   Divers  Orages  Givrage  Turbulence  Onde Orograph.  Cendres Volcan.







- Altitude de l'aérodrome : 1830 ft


EBLB - Butgenbach Elsenborn

DERNIER METAR :
  • 220355Z AUTO 24004KT 2600 DZ OVC003/// 00/00 Q1006 YLO

METARs EXPIRÉS :
  • 220405Z AUTO 24004KT 1400 -DZ OVC003/// 00/00 Q1006 AMB
  • 220336Z AUTO VRB02KT 1300 -DZ OVC003/// 00/00 Q1006 AMB
  • 220325Z AUTO 22003KT 2600 DZ OVC003/// 00/00 Q1006 YLO
  • 220315Z AUTO VRB02KT 1500 DZ OVC003/// 00/00 Q1006 AMB
  • 220255Z AUTO VRB02KT 1800 -DZ OVC003/// M00/M00 Q1006 YLO
  • 220225Z AUTO 21004KT 2500 DZ OVC003/// M00/M00 Q1006 YLO
  • 220219Z AUTO 21004KT 1500 DZ OVC003/// M00/M00 Q1006 AMB
  • 220155Z AUTO 20004KT 2200 -DZ OVC003/// M00/M00 Q1007 YLO
  • 220125Z AUTO 21005KT 1600 -DZ OVC004/// M00/M00 Q1007 YLO

Prévision TAF périmée.
Pas de NOTAMs connus pour ce terrain.



MET'MAP, la Météo Aéronautique d'un coup d'oeil ! - Copyright ORBIFLY Décembre 2007 - Disclaimer

ORBIFLY MET'MAP TEAM :

Programmation & Développement : Alexandra Zaïnal
Conception & Développement : Baudouin d'Aumeries
Co-Programmation & Développement : Marc-Olivier Méhu
Soutien technique & logistique : Manuel Goepfert

Contact : metmap@orbifly.com




SOURCES & CREDITS :

   NOAA